^^
Weather Station Historical Data
 
Daily Summary for May 10, 2026 Units:  English    Metric   Both
Daily Weekly Monthly Yearly
  Current: High: Low: Average:
Temperature: 56.9 °F 61.3 °F 56.3 °F 58.6 °F
Dew Point: 27 °F 27.7 °F 26.2 °F 26.8 °F
Humidity: 31.6% 32.9% 26.4% 29%
Wind Speed: 1.8mph 4.1mph 0mph 2.2mph
Wind Gust: 3.4mph 9.2mph - -
WindSE - - SSE
Pressure: 30.18 in 30.18 in 30.12 in -
Precipitation: 0.00 in      
 
 
Tabular Data for May 10, 2026
Time Temperature Dew Point Pressure Wind Wind Speed Wind Gust Humidity Rainfall Rate (Hourly) solar
00:09 61.3 °F 26.5 °F 30.13 in North 3.7 mph 8.1 mph 26.4% 0.00 in 0 W/m2
00:14 61.2 °F 27 °F 30.13 in North 2.8 mph 5.8 mph 27% 0.00 in 0 W/m2
00:19 61 °F 26.8 °F 30.13 in NNW 3.4 mph 8.1 mph 27% 0.00 in 0 W/m2
00:24 60.7 °F 26.5 °F 30.13 in North 2.8 mph 5.8 mph 27% 0.00 in 0 W/m2
00:29 60.6 °F 26.4 °F 30.13 in NNE 3.1 mph 6.9 mph 27% 0.00 in 0 W/m2
00:34 60.7 °F 26.5 °F 30.13 in North 2.8 mph 5.8 mph 27% 0.00 in 0 W/m2
00:39 60.5 °F 27.1 °F 30.13 in NNE 2.8 mph 5.8 mph 27.8% 0.00 in 0 W/m2
00:44 60.5 °F 27.3 °F 30.13 in North 3.1 mph 6.9 mph 28% 0.00 in 0 W/m2
00:49 60.1 °F 27 °F 30.13 in North 2.5 mph 5.8 mph 28% 0.00 in 0 W/m2
00:54 59.5 °F 26.9 °F 30.12 in North 2.8 mph 6.9 mph 28.6% 0.00 in 0 W/m2
00:59 59 °F 26.8 °F 30.13 in NNW 2.5 mph 4.5 mph 29% 0.00 in 0 W/m2
01:04 58.5 °F 26.7 °F 30.13 in North 2.2 mph 4.5 mph 29.3% 0.00 in 0 W/m2
01:09 58.1 °F 26.8 °F 30.13 in NNW 2.4 mph 4.5 mph 30% 0.00 in 0 W/m2
01:14 58.2 °F 26.9 °F 30.13 in North 2.3 mph 4.5 mph 30% 0.00 in 0 W/m2
01:19 58.2 °F 26.9 °F 30.13 in NNE 2.3 mph 4.5 mph 30% 0.00 in 0 W/m2
01:24 58.6 °F 26.6 °F 30.13 in North 2.9 mph 5.8 mph 29.1% 0.00 in 0 W/m2
01:29 59.1 °F 26.9 °F 30.13 in North 2.8 mph 5.8 mph 29% 0.00 in 0 W/m2
01:34 59.4 °F 27.1 °F 30.13 in NNE 2.8 mph 5.8 mph 29% 0.00 in 0 W/m2
01:39 59.3 °F 27 °F 30.13 in North 2.3 mph 4.5 mph 29% 0.00 in 0 W/m2
01:44 59.4 °F 27.2 °F 30.13 in North 2.5 mph 5.8 mph 29% 0.00 in 0 W/m2
01:49 59.3 °F 27 °F 30.13 in North 2 mph 4.5 mph 29% 0.00 in 0 W/m2
01:54 58.8 °F 26.6 °F 30.13 in North 2.3 mph 4.5 mph 29% 0.00 in 0 W/m2
01:59 58.8 °F 26.6 °F 30.13 in NNW 2.2 mph 4.5 mph 29% 0.00 in 0 W/m2
02:04 58.6 °F 26.8 °F 30.13 in NNW 1.8 mph 3.4 mph 29.4% 0.00 in 0 W/m2
02:09 58.3 °F 27 °F 30.13 in North 2.3 mph 4.5 mph 30% 0.00 in 0 W/m2
02:14 58.1 °F 26.6 °F 30.13 in North 2.7 mph 5.8 mph 29.7% 0.00 in 0 W/m2
02:19 58.2 °F 26.2 °F 30.13 in NNE 2.3 mph 5.8 mph 29% 0.00 in 0 W/m2
02:24 58.2 °F 26.2 °F 30.13 in NNE 2.7 mph 5.8 mph 29% 0.00 in 0 W/m2
02:29 58.3 °F 26.2 °F 30.13 in NNE 2.6 mph 4.5 mph 29% 0.00 in 0 W/m2
02:34 58.3 °F 26.2 °F 30.13 in NNE 2.3 mph 4.5 mph 29% 0.00 in 0 W/m2
02:39 58.3 °F 26.2 °F 30.13 in NNE 2.3 mph 4.5 mph 29% 0.00 in 0 W/m2
02:44 58.5 °F 26.4 °F 30.13 in NNE 2.9 mph 6.9 mph 29% 0.00 in 0 W/m2
02:49 58.8 °F 26.6 °F 30.13 in NNE 2.1 mph 4.5 mph 29% 0.00 in 0 W/m2
02:54 58.9 °F 26.6 °F 30.13 in NNE 2.4 mph 6.9 mph 28.9% 0.00 in 0 W/m2
02:59 59.4 °F 26.3 °F 30.13 in NNE 2.4 mph 5.8 mph 28% 0.00 in 0 W/m2
03:04 59.6 °F 26.5 °F 30.14 in NW 1 mph 4.5 mph 28% 0.00 in 0 W/m2
03:09 59.4 °F 26.8 °F 30.14 in NW 0.8 mph 2.2 mph 28.6% 0.00 in 0 W/m2
03:14 59.1 °F 26.9 °F 30.14 in NW 1 mph 3.4 mph 28.9% 0.00 in 0 W/m2
03:19 59.1 °F 26.9 °F 30.15 in West 0.1 mph 3.4 mph 29% 0.00 in 0 W/m2
03:24 59.1 °F 26.9 °F 30.15 in Calm   1.1 mph 28.9% 0.00 in 0 W/m2
03:29 58.8 °F 26.6 °F 30.15 in North 0.3 mph 1.1 mph 29% 0.00 in 0 W/m2
03:34 58.6 °F 26.5 °F 30.15 in SE 0.5 mph 1.1 mph 29% 0.00 in 0 W/m2
03:39 58.2 °F 26.8 °F 30.15 in SW 0.4 mph 1.1 mph 29.8% 0.00 in 0 W/m2
03:44 57.9 °F 26.6 °F 30.15 in SSW 0.9 mph 1.1 mph 30% 0.00 in 0 W/m2
03:49 57.7 °F 26.6 °F 30.16 in SSW 0.8 mph 2.2 mph 30.2% 0.00 in 0 W/m2
03:54 57.1 °F 26.8 °F 30.16 in SSW 0.9 mph 2.2 mph 31% 0.00 in 0 W/m2
03:59 56.8 °F 26.6 °F 30.16 in SW 0.9 mph 2.2 mph 31% 0.00 in 0 W/m2
04:04 56.4 °F 26.4 °F 30.16 in SSW 0.9 mph 2.2 mph 31.4% 0.00 in 0 W/m2
04:09 56.3 °F 26.8 °F 30.16 in South 1.2 mph 2.2 mph 32% 0.00 in 0 W/m2
04:14 56.3 °F 26.8 °F 30.16 in SE 1.7 mph 3.4 mph 32% 0.00 in 0 W/m2
04:19 56.6 °F 26.8 °F 30.16 in ESE 2.4 mph 4.5 mph 31.6% 0.00 in 0 W/m2
04:24 56.8 °F 27 °F 30.17 in SSW 1.6 mph 4.5 mph 31.7% 0.00 in 0 W/m2
04:29 56.6 °F 27.7 °F 30.17 in SSW 3.4 mph 6.9 mph 32.9% 0.00 in 0 W/m2
04:34 56.9 °F 27.5 °F 30.17 in SSE 3.9 mph 8.1 mph 32.3% 0.00 in 0 W/m2
04:39 57.3 °F 27.6 °F 30.16 in ESE 3.7 mph 6.9 mph 31.7% 0.00 in 0 W/m2
04:44 57.9 °F 27.2 °F 30.16 in SE 4.1 mph 9.2 mph 30.7% 0.00 in 0 W/m2
04:49 58.5 °F 27.2 °F 30.17 in ESE 4 mph 8.1 mph 30% 0.00 in 0 W/m2
04:54 58.4 °F 27.1 °F 30.17 in SE 3 mph 5.8 mph 30% 0.00 in 0 W/m2
04:59 58.2 °F 26.9 °F 30.17 in SE 3 mph 5.8 mph 30% 0.00 in 0 W/m2
05:04 58.2 °F 26.9 °F 30.17 in SSW 1.7 mph 4.5 mph 30% 0.00 in 0 W/m2
05:09 58.1 °F 26.8 °F 30.17 in South 1.2 mph 4.5 mph 30% 0.00 in 0 W/m2
05:14 57.7 °F 27 °F 30.17 in SSW 0.7 mph 2.2 mph 30.7% 0.00 in 0 W/m2
05:19 56.9 °F 27 °F 30.18 in SE 1.8 mph 3.4 mph 31.6% 0.00 in 0 W/m2
Santa Fe, NM, USA
Compliments of Weather Underground - 4 mb